Time;durP1;ratioP1;P1;durP2;ratioP2;P2;SDS_P1;SDS_P2;PMS_P1;PMS_P2;Temp;Humidity;BMP_temperature;BMP_pressure;BME280_temperature;BME280_humidity;BME280_pressure;Samples;Min_cycle;Max_cycle;Signal;HPM_P1;HPM_P2
2022/03/24 00:02:08;;;;;;;18.27;13.30;;;;;;;5.45;70.80;99269.59;5063773;28;20238;-70
2022/03/24 00:04:34;;;;;;;18.60;12.40;;;;;;;5.47;71.13;99276.50;5067738;28;20217;-69
2022/03/24 00:07:01;;;;;;;19.27;13.00;;;;;;;5.41;71.07;99268.84;5066649;28;20215;-69
2022/03/24 00:09:27;;;;;;;16.40;12.40;;;;;;;5.37;70.76;99266.34;5069296;28;20214;-69
2022/03/24 00:11:55;;;;;;;21.47;13.30;;;;;;;5.40;69.48;99261.88;5069338;28;20213;-70
2022/03/24 00:14:21;;;;;;;17.83;12.60;;;;;;;5.35;69.20;99257.66;5066677;28;20688;-69
2022/03/24 00:16:49;;;;;;;19.80;13.13;;;;;;;5.25;68.80;99253.63;5065442;28;20227;-70
2022/03/24 00:19:19;;;;;;;21.10;14.30;;;;;;;5.14;69.21;99259.16;5045721;28;20222;-70
2022/03/24 00:21:46;;;;;;;19.60;13.43;;;;;;;4.95;69.97;99260.59;5061972;28;20215;-70
2022/03/24 00:24:13;;;;;;;19.67;13.33;;;;;;;4.78;71.07;99257.63;5069147;28;20225;-69
2022/03/24 00:26:39;;;;;;;18.63;12.63;;;;;;;4.70;71.61;99251.75;5063119;28;20309;-69
2022/03/24 00:29:09;;;;;;;20.97;13.40;;;;;;;4.65;73.61;99255.41;5068341;28;20223;-69
2022/03/24 00:31:36;;;;;;;21.13;13.73;;;;;;;4.83;74.23;99255.72;5068975;28;20222;-70
2022/03/24 00:34:05;;;;;;;18.73;13.57;;;;;;;4.86;73.34;99257.41;5068876;28;20220;-71
2022/03/24 00:36:31;;;;;;;19.10;12.73;;;;;;;4.81;73.84;99257.53;5065049;28;20777;-70
2022/03/24 00:38:58;;;;;;;18.43;12.40;;;;;;;4.78;74.51;99255.03;5068017;28;20229;-70
2022/03/24 00:41:24;;;;;;;18.43;13.03;;;;;;;4.80;74.42;99258.44;5067367;28;20228;-70
2022/03/24 00:43:51;;;;;;;18.00;12.73;;;;;;;4.81;74.49;99254.91;5068671;28;20680;-70
2022/03/24 00:46:20;;;;;;;19.50;13.57;;;;;;;4.73;75.54;99253.41;5066381;28;20213;-69
2022/03/24 00:48:46;;;;;;;19.13;13.50;;;;;;;4.66;76.26;99255.38;5067175;28;20591;-69
2022/03/24 00:51:15;;;;;;;22.03;12.60;;;;;;;4.65;75.63;99258.03;5068549;28;20794;-69
2022/03/24 00:53:41;;;;;;;19.30;12.40;;;;;;;4.61;76.35;99246.78;5068902;28;20321;-69
2022/03/24 00:56:08;;;;;;;19.33;12.93;;;;;;;4.61;76.49;99253.75;5067125;28;20252;-69
2022/03/24 00:58:35;;;;;;;18.93;12.63;;;;;;;4.63;77.21;99247.59;5066253;28;20217;-69
2022/03/24 01:01:02;;;;;;;19.63;13.47;;;;;;;4.61;76.78;99245.91;5068421;28;20240;-69
2022/03/24 01:03:29;;;;;;;18.33;12.27;;;;;;;4.48;77.46;99248.03;5068762;28;20213;-69
2022/03/24 01:05:57;;;;;;;20.00;13.37;;;;;;;4.46;76.27;99244.56;5065966;28;20224;-69
2022/03/24 01:08:25;;;;;;;20.00;13.33;;;;;;;4.42;76.19;99245.56;5065213;28;20227;-69
2022/03/24 01:10:51;;;;;;;20.83;13.90;;;;;;;4.34;75.82;99242.28;5064140;28;20217;-69
2022/03/24 01:13:21;;;;;;;19.30;13.10;;;;;;;4.27;76.54;99239.88;5061092;28;20216;-69
2022/03/24 01:15:50;;;;;;;18.70;13.30;;;;;;;4.17;77.55;99244.47;5068247;28;20242;-69
2022/03/24 01:18:18;;;;;;;16.40;11.90;;;;;;;4.09;77.63;99233.38;5064974;28;20229;-69
2022/03/24 01:20:45;;;;;;;20.13;13.30;;;;;;;4.04;78.14;99237.00;5065553;28;20218;-69
2022/03/24 01:23:12;;;;;;;20.77;13.33;;;;;;;3.98;77.58;99245.84;5068604;28;20579;-69
2022/03/24 01:25:42;;;;;;;18.47;12.63;;;;;;;3.93;78.34;99229.44;5068424;28;20219;-69
2022/03/24 01:28:09;;;;;;;19.53;13.03;;;;;;;3.86;78.51;99227.84;5062254;28;20212;-69
2022/03/24 01:30:36;;;;;;;23.17;14.37;;;;;;;3.81;79.35;99226.25;5067974;28;20212;-69
2022/03/24 01:33:02;;;;;;;18.23;13.50;;;;;;;3.80;79.86;99228.00;5066666;28;20212;-70
2022/03/24 01:35:29;;;;;;;19.97;13.70;;;;;;;3.74;80.22;99228.16;5068339;28;20241;-70
2022/03/24 01:37:55;;;;;;;19.83;13.53;;;;;;;3.67;80.98;99229.22;5065360;28;20688;-71
2022/03/24 01:40:23;;;;;;;21.97;14.10;;;;;;;3.58;81.18;99226.84;5066270;28;20238;-71
2022/03/24 01:42:51;;;;;;;25.60;14.90;;;;;;;3.50;81.87;99220.06;5071762;28;20695;-70
2022/03/24 01:45:19;;;;;;;19.97;13.97;;;;;;;3.43;82.10;99227.19;5071684;28;20601;-70
2022/03/24 01:47:45;;;;;;;17.80;12.20;;;;;;;3.39;81.77;99230.78;5069909;28;20227;-70
2022/03/24 01:50:13;;;;;;;17.40;13.00;;;;;;;3.39;81.67;99233.41;5069857;28;20249;-70
2022/03/24 01:52:39;;;;;;;17.30;11.87;;;;;;;3.33;82.54;99223.09;5071556;28;20218;-70
2022/03/24 01:55:08;;;;;;;16.70;11.23;;;;;;;3.37;82.76;99226.50;5071487;28;20693;-70
2022/03/24 01:57:35;;;;;;;17.73;11.23;;;;;;;3.45;81.88;99230.66;5069604;28;20219;-70
2022/03/24 02:00:04;;;;;;;19.10;12.60;;;;;;;3.48;81.92;99224.50;5058227;28;20216;-70
2022/03/24 02:02:31;;;;;;;16.37;11.77;;;;;;;3.46;81.42;99218.41;5059591;28;20234;-69
2022/03/24 02:04:57;;;;;;;16.27;11.57;;;;;;;3.41;81.98;99218.53;5058111;28;20216;-69
2022/03/24 02:07:25;;;;;;;16.27;12.20;;;;;;;3.43;82.54;99227.19;5057899;28;20303;-69
2022/03/24 02:09:51;;;;;;;18.77;13.03;;;;;;;3.43;82.17;99221.97;5057713;28;20224;-69
2022/03/24 02:12:18;;;;;;;17.43;12.07;;;;;;;3.39;82.87;99230.78;5061137;28;20208;-70
2022/03/24 02:14:44;;;;;;;17.17;12.17;;;;;;;3.33;83.07;99220.47;5071129;28;20745;-69
2022/03/24 02:17:12;;;;;;;17.80;12.13;;;;;;;3.23;84.15;99218.97;5071166;28;20673;-69
2022/03/24 02:19:40;;;;;;;21.27;13.00;;;;;;;3.14;85.07;99219.19;5067522;28;20696;-69
2022/03/24 02:22:11;;;;;;;19.00;12.27;;;;;;;3.07;85.68;99212.34;5070463;28;20210;-70
2022/03/24 02:24:37;;;;;;;19.07;13.17;;;;;;;3.04;86.20;99216.78;5069798;28;20237;-69
2022/03/24 02:27:05;;;;;;;20.87;13.93;;;;;;;3.06;86.14;99210.63;5071074;28;20229;-69
2022/03/24 02:29:31;;;;;;;19.17;12.43;;;;;;;3.05;85.83;99211.53;5068118;28;20231;-70
2022/03/24 02:31:58;;;;;;;17.20;11.97;;;;;;;3.00;86.40;99202.94;5070148;28;20215;-70
2022/03/24 02:34:48;;;;;;;17.03;12.60;;;;;;;2.97;86.43;99210.84;5070950;28;20606;-70
2022/03/24 02:37:19;;;;;;;18.17;12.80;;;;;;;2.99;87.07;99203.84;5069858;28;20274;-70
2022/03/24 02:39:47;;;;;;;23.37;14.80;;;;;;;3.06;88.54;99202.81;5069163;28;20223;-69
2022/03/24 02:42:16;;;;;;;23.13;14.20;;;;;;;3.11;88.08;99211.41;5071721;28;20222;-70
2022/03/24 02:44:43;;;;;;;20.13;13.73;;;;;;;3.12;87.96;99213.13;5071818;28;20216;-69
2022/03/24 02:47:11;;;;;;;21.13;13.97;;;;;;;3.12;88.69;99202.66;5069777;28;20738;-69
2022/03/24 02:49:38;;;;;;;23.07;14.47;;;;;;;3.11;88.63;99208.78;5068187;28;20212;-70
2022/03/24 02:52:07;;;;;;;22.67;14.13;;;;;;;3.12;89.15;99209.66;5070472;28;20265;-69
2022/03/24 02:54:36;;;;;;;22.83;14.00;;;;;;;3.10;89.24;99214.03;5071499;28;20237;-69
2022/03/24 02:57:03;;;;;;;21.03;14.73;;;;;;;3.22;89.08;99212.03;5069671;28;20239;-69
2022/03/24 02:59:30;;;;;;;22.53;13.83;;;;;;;3.16;89.22;99206.06;5067668;28;20211;-69
2022/03/24 03:01:59;;;;;;;20.23;14.37;;;;;;;3.13;89.27;99201.75;5070667;28;20251;-70
2022/03/24 03:04:26;;;;;;;20.20;13.23;;;;;;;3.14;88.73;99213.97;5070789;28;20223;-70
2022/03/24 03:06:53;;;;;;;21.77;14.33;;;;;;;3.17;88.73;99210.41;5070275;28;20208;-69
2022/03/24 03:09:20;;;;;;;21.30;14.37;;;;;;;3.20;88.23;99207.72;5066959;28;20239;-69
2022/03/24 03:11:48;;;;;;;22.77;14.17;;;;;;;3.16;88.26;99227.84;5046190;28;20223;-69
2022/03/24 03:14:17;;;;;;;20.57;14.60;;;;;;;3.19;88.63;99221.69;5070497;28;20219;-69
2022/03/24 03:16:44;;;;;;;21.90;13.77;;;;;;;3.15;89.14;99222.63;5068849;28;20326;-69
2022/03/24 03:19:11;;;;;;;24.93;13.67;;;;;;;3.21;88.54;99225.97;5063692;28;20743;-69
2022/03/24 03:21:39;;;;;;;17.17;13.13;;;;;;;3.16;88.41;99217.38;5058603;28;20218;-70
2022/03/24 03:24:07;;;;;;;22.30;14.47;;;;;;;3.14;88.61;99219.19;5069844;28;20699;-69
2022/03/24 03:26:34;;;;;;;21.37;14.93;;;;;;;3.14;88.71;99221.78;5070209;28;20583;-70
2022/03/24 03:29:02;;;;;;;21.93;15.23;;;;;;;3.10;88.34;99222.75;5067186;28;20562;-69
2022/03/24 03:31:29;;;;;;;20.73;14.20;;;;;;;3.04;88.66;99217.66;5068696;28;20220;-69
2022/03/24 03:33:56;;;;;;;21.30;14.20;;;;;;;2.96;88.59;99219.59;5069927;28;20375;-69
2022/03/24 03:36:24;;;;;;;18.97;13.43;;;;;;;2.94;88.17;99218.75;5069974;28;20250;-69
2022/03/24 03:38:51;;;;;;;19.57;13.37;;;;;;;2.88;88.13;99221.47;5064396;28;20227;-69
2022/03/24 03:41:21;;;;;;;19.83;13.53;;;;;;;2.82;88.74;99216.41;5068052;28;20219;-69
2022/03/24 03:43:48;;;;;;;21.63;14.47;;;;;;;2.77;89.09;99213.06;5067791;28;20696;-69
2022/03/24 03:46:17;;;;;;;23.47;14.70;;;;;;;2.74;89.74;99217.44;5069683;28;20212;-69
2022/03/24 03:48:45;;;;;;;18.40;13.47;;;;;;;2.70;89.79;99221.03;5067916;28;20219;-69
2022/03/24 03:51:12;;;;;;;20.40;14.17;;;;;;;2.71;89.82;99226.22;5067381;28;20224;-69
2022/03/24 03:53:40;;;;;;;20.60;14.60;;;;;;;2.58;90.42;99227.34;5069585;28;20218;-70
2022/03/24 03:56:07;;;;;;;21.80;14.20;;;;;;;2.56;90.48;99229.13;5069149;28;20712;-70
2022/03/24 03:58:35;;;;;;;20.83;13.30;;;;;;;2.46;91.07;99222.38;5068047;28;20249;-69
2022/03/24 04:01:01;;;;;;;19.40;14.17;;;;;;;2.38;91.49;99224.28;5066652;28;20638;-69
2022/03/24 04:03:31;;;;;;;22.27;15.53;;;;;;;2.25;92.30;99227.16;5068447;28;20673;-69
2022/03/24 04:05:58;;;;;;;20.70;14.57;;;;;;;2.21;91.94;99231.56;5069031;28;20225;-69
2022/03/24 04:08:26;;;;;;;20.40;14.10;;;;;;;2.18;92.80;99229.03;5066925;28;20236;-70
2022/03/24 04:10:52;;;;;;;21.17;14.47;;;;;;;2.19;92.10;99228.13;5066030;28;20216;-70
2022/03/24 04:13:19;;;;;;;19.90;13.60;;;;;;;2.10;91.84;99225.72;5069307;28;20230;-69
2022/03/24 04:15:47;;;;;;;20.47;13.37;;;;;;;1.96;92.32;99229.44;5069061;28;20239;-70
2022/03/24 04:18:14;;;;;;;22.80;14.20;;;;;;;2.01;91.46;99236.28;5069254;28;20722;-69
2022/03/24 04:20:43;;;;;;;17.77;12.80;;;;;;;2.03;91.46;99237.09;5056044;28;20226;-70
2022/03/24 04:23:11;;;;;;;20.10;13.83;;;;;;;2.06;92.02;99233.59;5044534;28;20214;-71
2022/03/24 04:25:38;;;;;;;23.67;14.43;;;;;;;2.10;92.07;99233.53;5068776;28;20222;-70
2022/03/24 04:28:06;;;;;;;22.23;14.77;;;;;;;2.13;92.32;99238.69;5068918;28;20219;-71
2022/03/24 04:30:34;;;;;;;20.80;14.43;;;;;;;2.13;91.59;99243.88;5068519;28;20614;-69
2022/03/24 04:33:00;;;;;;;23.37;15.63;;;;;;;2.12;92.24;99241.31;5068480;28;20301;-71
2022/03/24 04:35:28;;;;;;;20.00;14.30;;;;;;;2.02;93.45;99243.22;5067419;28;20218;-69
2022/03/24 04:37:56;;;;;;;21.43;13.90;;;;;;;1.98;94.03;99241.56;5068585;28;20280;-69
2022/03/24 04:40:24;;;;;;;22.33;14.87;;;;;;;1.97;94.61;99242.44;5066371;28;20215;-69
2022/03/24 04:42:53;;;;;;;20.40;14.27;;;;;;;1.99;94.69;99235.47;5066280;28;20251;-69
2022/03/24 04:45:20;;;;;;;21.53;14.37;;;;;;;2.03;94.74;99247.53;5068942;28;20218;-70
2022/03/24 04:47:47;;;;;;;21.87;13.80;;;;;;;2.05;94.49;99243.19;5068558;28;20215;-69
2022/03/24 04:50:15;;;;;;;23.23;14.97;;;;;;;2.07;94.43;99243.13;5066735;28;20376;-69
2022/03/24 04:52:42;;;;;;;22.37;15.70;;;;;;;2.10;94.21;99243.09;5067020;28;20567;-69
2022/03/24 04:55:11;;;;;;;22.20;14.93;;;;;;;2.12;93.71;99243.91;5062023;28;20715;-70
2022/03/24 04:57:37;;;;;;;23.83;14.37;;;;;;;2.10;94.38;99249.19;5068645;28;20609;-69
2022/03/24 05:00:05;;;;;;;22.33;14.67;;;;;;;2.09;94.58;99252.66;5065087;28;20221;-69
2022/03/24 05:02:32;;;;;;;21.00;15.10;;;;;;;2.13;93.72;99238.69;5065946;28;20250;-69
2022/03/24 05:04:59;;;;;;;20.60;15.03;;;;;;;2.15;94.13;99242.09;5068613;28;20210;-69
2022/03/24 05:07:26;;;;;;;23.47;14.80;;;;;;;2.18;93.69;99246.41;5068751;28;20586;-69
2022/03/24 05:09:53;;;;;;;20.53;14.07;;;;;;;2.16;93.61;99248.19;5067640;28;20710;-70
2022/03/24 05:12:21;;;;;;;21.17;14.27;;;;;;;2.15;93.71;99246.47;5064853;28;20703;-69
2022/03/24 05:14:48;;;;;;;20.60;14.80;;;;;;;2.10;93.70;99249.19;5070165;28;20211;-69
2022/03/24 05:17:15;;;;;;;25.77;16.13;;;;;;;2.15;93.54;99242.09;5072772;28;20246;-69
2022/03/24 05:19:44;;;;;;;20.87;14.43;;;;;;;2.17;93.92;99245.56;5070311;28;20207;-69
2022/03/24 05:22:10;;;;;;;21.97;14.77;;;;;;;2.18;94.06;99242.06;5066409;28;20211;-69
2022/03/24 05:24:38;;;;;;;22.50;14.77;;;;;;;2.16;93.76;99241.25;5072303;28;20556;-69
2022/03/24 05:27:05;;;;;;;22.50;14.50;;;;;;;2.24;92.97;99248.91;5070848;28;20218;-70
2022/03/24 05:29:33;;;;;;;22.23;15.00;;;;;;;2.26;93.09;99254.97;5072412;28;20216;-69
2022/03/24 05:32:00;;;;;;;20.97;13.63;;;;;;;2.28;92.76;99250.59;5069032;28;20219;-69
2022/03/24 05:34:26;;;;;;;22.17;15.00;;;;;;;2.25;93.62;99248.00;5071119;28;20215;-70
2022/03/24 05:36:53;;;;;;;23.87;14.63;;;;;;;2.19;93.82;99249.00;5072274;28;20242;-70
2022/03/24 05:39:20;;;;;;;20.37;13.83;;;;;;;2.24;92.79;99247.16;5072304;28;20211;-70
2022/03/24 05:41:47;;;;;;;20.30;14.17;;;;;;;2.28;92.98;99251.41;5070073;28;20219;-70
2022/03/24 05:44:13;;;;;;;21.07;14.87;;;;;;;2.30;92.88;99257.50;5069950;28;20239;-70
2022/03/24 05:46:44;;;;;;;21.27;14.13;;;;;;;2.29;92.37;99260.13;5072050;28;20216;-71
2022/03/24 05:49:13;;;;;;;18.50;13.70;;;;;;;2.33;90.96;99252.19;5072120;28;20215;-69
2022/03/24 05:51:42;;;;;;;19.53;13.93;;;;;;;2.24;90.08;99257.59;5069804;28;20269;-69
2022/03/24 05:54:08;;;;;;;21.97;14.63;;;;;;;2.30;87.33;99252.28;5068955;28;20219;-69
2022/03/24 05:56:35;;;;;;;20.57;13.27;;;;;;;2.25;86.15;99258.44;5071884;28;20235;-69
2022/03/24 05:59:02;;;;;;;19.70;13.30;;;;;;;2.13;87.22;99259.53;5072077;28;20216;-70
2022/03/24 06:01:29;;;;;;;21.73;13.90;;;;;;;2.10;88.74;99266.56;5071077;28;20678;-69
2022/03/24 06:04:00;;;;;;;23.93;14.40;;;;;;;2.13;88.57;99264.75;5068319;28;20237;-70
2022/03/24 06:06:27;;;;;;;22.33;14.20;;;;;;;2.20;89.22;99271.56;5071916;28;20241;-69
2022/03/24 06:08:54;;;;;;;21.87;13.97;;;;;;;2.31;89.82;99269.63;5065797;28;20212;-70
2022/03/24 06:11:21;;;;;;;19.77;13.27;;;;;;;2.41;90.27;99270.31;5067986;28;20566;-69
2022/03/24 06:13:48;;;;;;;19.30;14.10;;;;;;;2.48;89.98;99267.56;5067583;28;20681;-70
2022/03/24 06:16:15;;;;;;;18.77;13.20;;;;;;;2.59;89.76;99269.97;5047163;28;20226;-69
2022/03/24 06:18:42;;;;;;;20.93;13.80;;;;;;;2.74;89.40;99275.75;5069470;28;20215;-69
2022/03/24 06:21:10;;;;;;;20.47;14.43;;;;;;;2.86;89.56;99269.41;5071387;28;20559;-69
2022/03/24 06:23:37;;;;;;;20.30;14.40;;;;;;;2.99;89.59;99273.50;5067992;28;20223;-69
2022/03/24 06:26:04;;;;;;;20.37;14.10;;;;;;;3.11;89.40;99271.47;5069752;28;20212;-69
2022/03/24 06:28:30;;;;;;;20.13;13.80;;;;;;;3.30;89.17;99271.94;5071035;28;20284;-69
2022/03/24 06:30:57;;;;;;;22.87;15.07;;;;;;;3.41;88.85;99273.41;5071300;28;20216;-70
2022/03/24 06:33:23;;;;;;;22.53;15.40;;;;;;;3.57;88.32;99277.41;5068658;28;20211;-69
2022/03/24 06:35:50;;;;;;;20.63;14.13;;;;;;;3.68;87.88;99280.59;5069387;28;20227;-70
2022/03/24 06:38:18;;;;;;;22.23;15.03;;;;;;;3.82;87.67;99278.53;5067067;28;20231;-71
2022/03/24 06:40:45;;;;;;;20.03;14.30;;;;;;;3.96;86.72;99267.72;5063794;28;20219;-70
2022/03/24 06:43:11;;;;;;;20.80;14.43;;;;;;;4.09;85.91;99277.00;5068305;28;20592;-69
2022/03/24 06:45:38;;;;;;;20.90;14.97;;;;;;;4.19;85.31;99274.09;5065000;28;20688;-70
2022/03/24 06:48:07;;;;;;;23.00;14.60;;;;;;;4.36;84.32;99277.13;5069292;28;20681;-70
2022/03/24 06:50:33;;;;;;;24.70;15.60;;;;;;;4.49;82.44;99278.53;5069543;28;20271;-70
2022/03/24 06:53:00;;;;;;;21.10;13.87;;;;;;;4.56;81.96;99274.84;5068744;28;20685;-70
2022/03/24 06:55:28;;;;;;;19.93;14.87;;;;;;;4.69;81.39;99276.22;5065894;28;20217;-71
2022/03/24 06:57:54;;;;;;;21.77;16.10;;;;;;;4.82;80.84;99272.34;5045863;28;20252;-70
2022/03/24 07:00:21;;;;;;;24.63;15.20;;;;;;;4.91;79.95;99282.56;5069581;28;20215;-69
2022/03/24 07:02:48;;;;;;;22.40;14.97;;;;;;;5.06;80.09;99276.88;5069382;28;20367;-70
2022/03/24 07:05:15;;;;;;;20.73;14.17;;;;;;;5.22;79.12;99282.53;5065913;28;20208;-69
2022/03/24 07:07:43;;;;;;;25.70;14.90;;;;;;;5.34;79.10;99280.41;5068501;28;20212;-69
2022/03/24 07:10:10;;;;;;;25.90;16.00;;;;;;;5.49;78.33;99281.72;5069186;28;20213;-69
2022/03/24 07:12:38;;;;;;;20.87;14.63;;;;;;;5.62;78.09;99285.66;5067623;28;20213;-71
2022/03/24 07:15:08;;;;;;;21.37;14.40;;;;;;;5.78;77.83;99285.13;5066238;28;20690;-71
2022/03/24 07:17:34;;;;;;;22.00;14.63;;;;;;;5.87;76.80;99279.59;5066650;28;20242;-71
2022/03/24 07:20:03;;;;;;;21.03;15.00;;;;;;;6.00;76.44;99270.44;5064284;28;20214;-71
2022/03/24 07:22:32;;;;;;;22.83;14.73;;;;;;;6.11;75.91;99273.56;5063714;28;20262;-71
2022/03/24 07:24:59;;;;;;;20.87;15.03;;;;;;;6.28;75.37;99271.22;5066624;28;20559;-69
2022/03/24 07:27:25;;;;;;;23.77;14.97;;;;;;;6.41;74.51;99271.69;5067285;28;20802;-70
2022/03/24 07:29:53;;;;;;;21.67;14.57;;;;;;;6.51;72.84;99271.28;5068998;28;20215;-70
2022/03/24 07:32:20;;;;;;;21.83;14.60;;;;;;;6.63;72.54;99276.13;5068830;28;20213;-69
2022/03/24 07:34:46;;;;;;;22.40;14.70;;;;;;;6.72;72.38;99278.41;5067275;28;20248;-70
2022/03/24 07:37:14;;;;;;;19.93;14.73;;;;;;;6.90;71.14;99279.53;5063936;28;20235;-70
2022/03/24 07:39:42;;;;;;;19.33;14.50;;;;;;;7.01;70.40;99286.09;5067890;28;20212;-71
2022/03/24 07:42:09;;;;;;;20.53;14.87;;;;;;;7.14;69.93;99284.72;5068567;28;20245;-71
2022/03/24 07:44:35;;;;;;;21.30;14.57;;;;;;;7.25;69.54;99277.28;5067712;28;20218;-70
2022/03/24 07:47:04;;;;;;;21.77;15.10;;;;;;;7.46;68.15;99281.72;5065139;28;20223;-69
2022/03/24 07:49:30;;;;;;;22.60;15.73;;;;;;;7.60;67.05;99282.06;5068388;28;20261;-70
2022/03/24 07:51:57;;;;;;;22.47;15.23;;;;;;;7.71;66.19;99293.03;5068344;28;20229;-70
2022/03/24 07:54:40;;;;;;;22.83;15.50;;;;;;;7.86;66.12;99281.88;5068104;28;20680;-70
2022/03/24 07:57:07;;;;;;;22.83;15.20;;;;;;;7.88;65.51;99282.66;5065523;28;20239;-72
2022/03/24 07:59:35;;;;;;;24.20;15.90;;;;;;;8.00;63.86;99287.44;5068105;28;20703;-69
2022/03/24 08:02:01;;;;;;;20.90;14.80;;;;;;;8.13;63.51;99283.38;5067792;28;20732;-69
2022/03/24 08:04:29;;;;;;;22.60;15.13;;;;;;;8.25;62.39;99277.63;5065222;28;20214;-69
2022/03/24 08:06:56;;;;;;;22.90;15.43;;;;;;;8.40;62.31;99293.66;5065147;28;20593;-69
2022/03/24 08:09:22;;;;;;;21.83;15.87;;;;;;;8.43;62.30;99287.41;5066296;28;20219;-69
2022/03/24 08:11:49;;;;;;;25.03;16.20;;;;;;;8.62;61.04;99293.63;5066727;28;20223;-69
2022/03/24 08:14:15;;;;;;;20.77;14.27;;;;;;;8.70;62.25;99292.34;5064888;28;20215;-69
2022/03/24 08:16:45;;;;;;;23.43;15.37;;;;;;;8.84;61.18;99289.13;5060090;28;20216;-69
2022/03/24 08:19:12;;;;;;;22.90;15.97;;;;;;;9.01;59.85;99286.59;5045229;28;20218;-69
2022/03/24 08:21:40;;;;;;;24.57;16.50;;;;;;;9.15;59.59;99284.19;5061200;28;20215;-69
2022/03/24 08:24:06;;;;;;;22.27;15.90;;;;;;;9.34;57.67;99287.69;5064083;28;20215;-69
2022/03/24 08:26:33;;;;;;;24.67;15.77;;;;;;;9.34;58.04;99280.66;5058725;28;20212;-69
2022/03/24 08:29:00;;;;;;;24.37;15.90;;;;;;;9.47;58.21;99280.91;5063982;28;20228;-70
2022/03/24 08:31:27;;;;;;;22.47;15.57;;;;;;;9.55;58.70;99278.78;5062875;28;20211;-70
2022/03/24 08:33:53;;;;;;;24.70;15.83;;;;;;;9.68;57.84;99285.19;5062124;28;20215;-69
2022/03/24 08:36:20;;;;;;;21.93;15.70;;;;;;;9.72;55.79;99287.63;5051386;28;20391;-70
2022/03/24 08:38:48;;;;;;;24.93;16.27;;;;;;;9.77;55.36;99285.63;5050824;28;20696;-69
2022/03/24 08:41:14;;;;;;;24.27;16.33;;;;;;;9.89;56.90;99284.16;5057901;28;20223;-69
2022/03/24 08:43:41;;;;;;;23.20;16.33;;;;;;;10.01;56.32;99283.56;5058574;28;20216;-69
2022/03/24 08:46:09;;;;;;;25.70;16.40;;;;;;;10.22;55.70;99277.28;5062637;28;20218;-71
2022/03/24 08:48:35;;;;;;;22.43;16.53;;;;;;;10.33;55.14;99282.91;5060653;28;20227;-71
2022/03/24 08:51:02;;;;;;;21.97;16.30;;;;;;;10.47;54.38;99277.75;5058410;28;20212;-69
2022/03/24 08:53:29;;;;;;;24.37;16.73;;;;;;;10.57;52.94;99277.22;5059131;28;20216;-69
2022/03/24 08:55:56;;;;;;;25.33;17.00;;;;;;;10.53;53.33;99280.09;5062358;28;20215;-69
2022/03/24 08:58:24;;;;;;;23.57;16.80;;;;;;;10.61;54.15;99280.53;5053508;28;20236;-69
2022/03/24 09:00:51;;;;;;;23.97;15.70;;;;;;;10.75;54.44;99272.75;5057730;28;20326;-70
2022/03/24 09:03:18;;;;;;;23.47;15.70;;;;;;;10.91;54.60;99274.53;5055501;28;20216;-70
2022/03/24 09:05:45;;;;;;;23.67;16.30;;;;;;;11.10;54.41;99287.63;5055672;28;20219;-70
2022/03/24 09:08:12;;;;;;;22.90;16.17;;;;;;;11.20;54.17;99280.94;5056763;28;20584;-71
2022/03/24 09:10:39;;;;;;;25.00;17.30;;;;;;;11.30;53.41;99282.13;5058006;28;20281;-69
2022/03/24 09:13:07;;;;;;;23.97;16.93;;;;;;;11.32;51.91;99275.81;5055431;28;20217;-69
2022/03/24 09:15:34;;;;;;;24.77;17.50;;;;;;;11.36;51.18;99276.50;5055476;28;20228;-69
2022/03/24 09:18:00;;;;;;;25.83;17.53;;;;;;;11.53;52.10;99279.09;5056131;28;20593;-69
2022/03/24 09:20:27;;;;;;;25.10;17.37;;;;;;;11.72;52.01;99280.69;5058210;28;20211;-69
2022/03/24 09:22:53;;;;;;;23.57;17.67;;;;;;;11.85;50.42;99279.03;5053901;28;20218;-70
2022/03/24 09:25:20;;;;;;;26.27;18.10;;;;;;;11.94;50.56;99290.94;5051289;28;20206;-70
2022/03/24 09:27:48;;;;;;;27.53;17.87;;;;;;;12.12;49.41;99279.28;5055075;28;20288;-70
2022/03/24 09:30:18;;;;;;;27.47;18.53;;;;;;;12.22;49.15;99276.00;5057053;28;20210;-70
2022/03/24 09:32:46;;;;;;;25.90;17.77;;;;;;;12.31;47.69;99271.97;5052194;28;20707;-70
2022/03/24 09:35:13;;;;;;;27.83;17.97;;;;;;;12.28;47.30;99274.81;5038069;28;20286;-70
2022/03/24 09:37:39;;;;;;;23.57;17.57;;;;;;;12.30;46.22;99283.53;5053101;28;20234;-70
2022/03/24 09:40:08;;;;;;;25.93;18.00;;;;;;;12.42;45.57;99277.50;5057638;28;20242;-70
2022/03/24 09:42:35;;;;;;;26.87;17.73;;;;;;;12.62;44.92;99285.13;5054785;28;20219;-70
2022/03/24 09:45:04;;;;;;;25.20;18.20;;;;;;;12.77;44.36;99278.94;5054626;28;20213;-70
2022/03/24 09:47:32;;;;;;;25.57;18.23;;;;;;;12.93;44.54;99277.06;5055445;28;20242;-69
2022/03/24 09:49:59;;;;;;;23.90;17.87;;;;;;;13.04;43.78;99277.28;5058229;28;20211;-70
2022/03/24 09:52:26;;;;;;;27.50;18.00;;;;;;;13.05;44.40;99279.00;5054051;28;20217;-70
2022/03/24 09:54:53;;;;;;;27.23;18.43;;;;;;;13.12;43.70;99275.88;5055543;28;20216;-70
2022/03/24 09:57:21;;;;;;;27.00;18.70;;;;;;;13.21;42.35;99271.81;5056352;28;20558;-70
2022/03/24 09:59:48;;;;;;;27.13;18.30;;;;;;;13.21;42.27;99271.81;5058869;28;20216;-69
2022/03/24 10:02:14;;;;;;;22.93;17.87;;;;;;;13.28;43.62;99273.13;5057422;28;20252;-69
2022/03/24 10:04:48;;;;;;;26.40;18.43;;;;;;;13.42;41.18;99273.13;5059325;28;20315;-70
2022/03/24 10:07:15;;;;;;;21.23;16.37;;;;;;;13.39;40.59;99274.16;5060628;28;20752;-69
2022/03/24 10:09:44;;;;;;;25.17;18.00;;;;;;;13.55;41.20;99264.28;5061804;28;20589;-70
2022/03/24 10:12:18;;;;;;;23.20;17.27;;;;;;;13.73;40.30;99267.56;5058659;28;20222;-70
2022/03/24 10:14:45;;;;;;;26.97;18.27;;;;;;;13.86;40.29;99263.16;5059109;28;20621;-69
2022/03/24 10:17:12;;;;;;;26.13;18.27;;;;;;;13.91;39.62;99261.06;5061444;28;20208;-71
2022/03/24 10:19:39;;;;;;;27.90;18.30;;;;;;;14.05;40.68;99253.91;5058556;28;20705;-70
2022/03/24 10:22:12;;;;;;;24.30;18.13;;;;;;;14.25;41.02;99261.44;5058983;28;20223;-70
2022/03/24 10:24:43;;;;;;;25.93;17.97;;;;;;;14.35;40.30;99256.41;5058935;28;20208;-70
2022/03/24 10:27:13;;;;;;;30.03;18.33;;;;;;;14.50;40.99;99250.91;5062381;28;20355;-70
2022/03/24 10:29:40;;;;;;;24.73;17.57;;;;;;;14.71;39.07;99253.91;5059073;28;20588;-70
2022/03/24 10:32:14;;;;;;;25.23;18.20;;;;;;;14.69;39.33;99251.38;5058855;28;20229;-70
2022/03/24 10:34:42;;;;;;;28.23;19.40;;;;;;;14.90;38.55;99257.03;5059244;28;20226;-71
2022/03/24 10:37:12;;;;;;;25.43;17.73;;;;;;;14.88;38.87;99245.63;5062169;28;20307;-72
2022/03/24 10:39:40;;;;;;;25.10;18.27;;;;;;;14.99;39.70;99251.06;5058270;28;20246;-70
2022/03/24 10:42:12;;;;;;;26.60;18.27;;;;;;;15.22;39.18;99245.81;5058804;28;20578;-70
2022/03/24 10:44:38;;;;;;;25.63;17.97;;;;;;;15.25;38.25;99242.09;5058814;28;20233;-70
2022/03/24 10:47:05;;;;;;;24.27;17.83;;;;;;;15.25;37.76;99245.63;5060770;28;20674;-70
2022/03/24 10:49:32;;;;;;;24.50;17.73;;;;;;;15.36;38.05;99242.22;5058465;28;20214;-70
2022/03/24 10:52:01;;;;;;;22.07;17.00;;;;;;;15.42;37.31;99247.97;5058732;28;20224;-70
2022/03/24 10:54:41;;;;;;;25.77;18.00;;;;;;;15.46;34.85;99241.44;5060238;28;20214;-70
2022/03/24 10:57:10;;;;;;;24.27;17.37;;;;;;;15.48;35.48;99238.69;5058945;28;20216;-70
2022/03/24 10:59:41;;;;;;;24.83;17.40;;;;;;;15.56;35.43;99238.97;5058351;28;20606;-70
2022/03/24 11:02:09;;;;;;;27.50;18.73;;;;;;;15.44;35.34;99234.53;5058019;28;20619;-72
2022/03/24 11:04:36;;;;;;;27.83;18.43;;;;;;;15.45;35.34;99230.94;5062173;28;20215;-72
2022/03/24 11:07:03;;;;;;;23.83;17.70;;;;;;;15.61;35.89;99236.84;5057939;28;20690;-72
2022/03/24 11:09:34;;;;;;;25.37;18.67;;;;;;;15.86;34.73;99239.44;5056748;28;20672;-73
2022/03/24 11:12:27;;;;;;;23.10;17.50;;;;;;;15.84;33.91;99233.38;5054347;28;20218;-72
2022/03/24 11:14:56;;;;;;;22.23;16.47;;;;;;;15.83;34.16;99237.00;5058574;28;20219;-72
2022/03/24 11:17:25;;;;;;;24.80;17.40;;;;;;;15.89;33.69;99233.88;5058190;28;20212;-72
2022/03/24 11:20:05;;;;;;;23.90;17.17;;;;;;;15.75;32.44;99226.88;5058031;28;20309;-74
2022/03/24 11:22:38;;;;;;;21.40;15.00;;;;;;;15.98;32.24;99225.19;5059797;28;20691;-72
2022/03/24 11:25:06;;;;;;;21.80;16.17;;;;;;;16.02;32.09;99217.72;5057973;28;20235;-72
2022/03/24 11:27:33;;;;;;;19.27;14.23;;;;;;;16.17;30.33;99221.94;5057842;28;20212;-73